Time;durP1;ratioP1;P1;durP2;ratioP2;P2;SDS_P1;SDS_P2;PMS_P1;PMS_P2;Temp;Humidity;BMP_temperature;BMP_pressure;BME280_temperature;BME280_humidity;BME280_pressure;Samples;Min_cycle;Max_cycle;Signal;HPM_P1;HPM_P2
2022/05/21 00:02:07;;;;;;;0.53;0.53;;;;;;;19.17;72.06;99479.59;4974773;28;20130;-69
2022/05/21 00:04:41;;;;;;;0.90;0.90;;;;;;;19.16;71.94;99480.50;4974518;28;20797;-69
2022/05/21 00:07:22;;;;;;;4.47;1.30;;;;;;;19.15;71.50;99499.50;4974706;28;20444;-68
2022/05/21 00:09:51;;;;;;;1.48;1.35;;;;;;;19.19;71.50;99493.31;4974603;28;20568;-69
2022/05/21 00:12:23;;;;;;;1.80;1.47;;;;;;;19.27;71.19;99478.31;4974636;28;20078;-69
2022/05/21 00:14:53;;;;;;;0.88;0.88;;;;;;;19.32;71.15;99440.16;4974433;28;20111;-69
2022/05/21 00:17:22;;;;;;;1.20;1.10;;;;;;;19.38;70.85;99445.16;4974451;28;20047;-69
2022/05/21 00:19:52;;;;;;;0.93;0.90;;;;;;;19.44;70.89;99447.47;4975197;28;20054;-69
2022/05/21 00:22:24;;;;;;;0.93;0.90;;;;;;;19.49;70.58;99422.25;4978301;28;20051;-69
2022/05/21 00:24:53;;;;;;;1.45;1.35;;;;;;;19.54;70.25;99416.88;4978090;28;20126;-69
2022/05/21 00:27:23;;;;;;;1.13;1.00;;;;;;;19.59;70.07;99439.09;4978256;28;20401;-69
2022/05/21 00:29:51;;;;;;;0.88;0.70;;;;;;;19.66;70.03;99430.16;4960749;28;20098;-69
2022/05/21 00:32:35;;;;;;;0.93;0.93;;;;;;;19.72;69.68;99416.97;4978127;28;20039;-69
2022/05/21 00:35:08;;;;;;;1.15;0.82;;;;;;;19.61;69.25;99390.66;4977698;28;20083;-69
2022/05/21 00:37:43;;;;;;;0.75;0.75;;;;;;;19.74;69.34;99407.38;4977865;28;20066;-69
2022/05/21 00:40:13;;;;;;;0.90;0.70;;;;;;;19.69;69.76;99398.13;4978123;28;20055;-69
2022/05/21 00:42:43;;;;;;;0.70;0.70;;;;;;;19.72;69.42;99383.31;4977497;28;20082;-69
2022/05/21 00:45:12;;;;;;;;;;;;;;;19.78;69.24;99372.66;4978054;28;20050;-69
2022/05/21 00:47:41;;;;;;;0.80;0.80;;;;;;;19.77;68.88;99355.44;4977563;28;19922;-69
2022/05/21 00:50:19;;;;;;;1.37;1.00;;;;;;;19.71;68.91;99345.34;4977616;28;20054;-69
2022/05/21 00:52:51;;;;;;;0.60;0.60;;;;;;;19.67;69.01;99359.34;4977494;28;20284;-69
2022/05/21 00:55:31;;;;;;;8.57;1.67;;;;;;;19.71;69.04;99394.56;4977826;28;20078;-69
2022/05/21 01:00:47;;;;;;;0.60;0.60;;;;;;;19.83;69.33;99484.69;4977672;28;20047;-69
2022/05/21 01:03:18;;;;;;;2.22;1.52;;;;;;;19.80;69.71;99587.56;4977399;28;20057;-68
2022/05/21 01:05:55;;;;;;;33.28;8.98;;;;;;;19.61;71.79;99634.06;4977357;28;20051;-71
2022/05/21 01:08:24;;;;;;;8.05;2.72;;;;;;;19.33;73.60;99630.81;4977506;28;20424;-69
2022/05/21 01:11:11;;;;;;;1.13;1.02;;;;;;;19.33;75.17;99638.56;4977234;28;20533;-69
2022/05/21 01:13:44;;;;;;;1.70;0.80;;;;;;;19.33;76.07;99613.53;4977154;28;20086;-69
2022/05/21 01:16:22;;;;;;;1.83;1.48;;;;;;;19.30;76.92;99597.25;4977470;28;20054;-70
2022/05/21 01:18:51;;;;;;;3.65;1.52;;;;;;;19.30;77.86;99566.22;4977093;28;20492;-70
2022/05/21 01:21:25;;;;;;;1.20;0.83;;;;;;;19.31;78.33;99544.63;4977075;28;20174;-70
2022/05/21 01:23:55;;;;;;;1.75;1.40;;;;;;;19.36;78.87;99522.03;4976872;28;20057;-70
2022/05/21 01:26:24;;;;;;;0.98;0.93;;;;;;;19.36;79.31;99490.97;4959997;28;20055;-70
2022/05/21 01:28:54;;;;;;;1.15;1.05;;;;;;;19.39;79.78;99464.94;4976890;28;20039;-70
2022/05/21 01:31:22;;;;;;;1.42;1.08;;;;;;;19.36;79.95;99457.31;4976921;28;20078;-70
2022/05/21 01:33:51;;;;;;;0.90;0.80;;;;;;;19.32;80.34;99479.84;4976533;28;20050;-70
2022/05/21 01:36:21;;;;;;;1.85;1.25;;;;;;;19.15;81.03;99500.34;4977055;28;20062;-70
2022/05/21 01:38:50;;;;;;;0.70;0.70;;;;;;;19.06;81.88;99515.38;4976660;28;20050;-71
2022/05/21 01:41:20;;;;;;;1.00;0.85;;;;;;;19.04;82.37;99535.28;4976679;28;20050;-70
2022/05/21 01:46:43;;;;;;;1.33;1.23;;;;;;;18.87;83.25;99548.00;4976815;28;20050;-70
2022/05/21 01:49:12;;;;;;;0.98;0.90;;;;;;;18.86;83.49;99549.75;4977458;28;20500;-69
2022/05/21 01:51:41;;;;;;;1.67;1.17;;;;;;;18.88;83.54;99557.47;4976577;28;20051;-69
2022/05/21 01:54:19;;;;;;;2.05;1.30;;;;;;;18.88;83.42;99560.06;4976619;28;20452;-69
2022/05/21 01:56:50;;;;;;;1.55;1.17;;;;;;;18.93;83.76;99576.25;4976757;28;20046;-70
2022/05/21 01:59:18;;;;;;;0.93;0.90;;;;;;;18.99;83.84;99576.00;4976958;28;20464;-70
2022/05/21 02:01:51;;;;;;;0.90;0.80;;;;;;;18.99;83.88;99597.56;4976657;28;20058;-69
2022/05/21 02:04:21;;;;;;;1.20;1.10;;;;;;;18.97;83.81;99616.63;4976228;28;20106;-69
2022/05/21 02:06:50;;;;;;;1.23;1.05;;;;;;;18.98;84.17;99639.00;4976368;28;20046;-69
2022/05/21 02:09:19;;;;;;;2.00;1.23;;;;;;;18.99;84.26;99643.28;4976117;28;20505;-69
2022/05/21 02:11:50;;;;;;;2.17;1.63;;;;;;;18.95;84.41;99644.28;4975116;28;20053;-69
2022/05/21 02:14:19;;;;;;;3.35;1.77;;;;;;;18.92;84.45;99623.69;4975938;28;20069;-69
2022/05/21 02:16:51;;;;;;;2.90;0.77;;;;;;;18.88;84.81;99622.13;4976025;28;20086;-68
2022/05/21 02:19:29;;;;;;;1.15;1.05;;;;;;;18.81;84.83;99612.91;4975889;28;20066;-68
2022/05/21 02:21:58;;;;;;;1.10;1.00;;;;;;;18.70;85.22;99600.31;4975969;28;20134;-68
2022/05/21 02:24:27;;;;;;;2.13;1.30;;;;;;;18.67;85.55;99590.94;4976039;28;20066;-68
2022/05/21 02:27:03;;;;;;;1.33;1.23;;;;;;;18.64;85.17;99574.69;4976056;28;20074;-67
2022/05/21 02:29:33;;;;;;;2.50;1.55;;;;;;;18.60;85.71;99568.78;4975818;28;20058;-67
2022/05/21 02:32:13;;;;;;;0.85;0.85;;;;;;;18.52;85.85;99549.28;4975778;28;20055;-67
2022/05/21 02:34:42;;;;;;;0.65;0.65;;;;;;;18.46;86.09;99540.00;4975376;28;20051;-68
2022/05/21 02:39:50;;;;;;;2.25;1.73;;;;;;;18.45;86.57;99543.41;4975637;28;19922;-68
2022/05/21 02:45:01;;;;;;;3.25;1.50;;;;;;;18.33;86.66;99515.41;4975637;28;20133;-68
2022/05/21 02:47:30;;;;;;;3.37;2.40;;;;;;;18.30;86.88;99506.94;4975269;28;20059;-68
2022/05/21 02:49:59;;;;;;;2.17;1.50;;;;;;;18.28;87.17;99503.56;4990454;28;20284;-68
2022/05/21 02:52:28;;;;;;;1.13;1.02;;;;;;;18.35;87.34;99511.06;4975466;28;20421;-69
2022/05/21 02:54:58;;;;;;;1.60;1.13;;;;;;;18.35;87.38;99505.91;4975395;28;20464;-69
2022/05/21 02:57:28;;;;;;;0.73;0.70;;;;;;;18.34;87.59;99508.53;4975480;28;20059;-69
2022/05/21 03:00:01;;;;;;;1.38;1.27;;;;;;;18.37;87.49;99504.09;4975271;28;20444;-69
2022/05/21 03:02:30;;;;;;;2.38;1.73;;;;;;;18.44;87.63;99505.56;4975632;28;20083;-69
2022/05/21 03:04:59;;;;;;;6.88;1.73;;;;;;;18.45;87.54;99506.41;4975733;28;20509;-69
2022/05/21 03:07:28;;;;;;;2.33;1.70;;;;;;;18.48;87.39;99498.56;4974999;28;20134;-69
2022/05/21 03:12:37;;;;;;;12.20;1.23;;;;;;;18.43;87.27;99497.84;4957872;28;20055;-68
2022/05/21 03:15:08;;;;;;;1.10;0.98;;;;;;;18.47;87.44;99500.34;4975086;28;20058;-69
2022/05/21 03:17:46;;;;;;;1.38;1.27;;;;;;;18.39;87.11;99489.38;4974947;28;20065;-68
2022/05/21 03:20:17;;;;;;;2.00;1.15;;;;;;;18.47;87.13;99510.66;4975014;28;20077;-69
2022/05/21 03:22:46;;;;;;;1.60;1.13;;;;;;;18.56;87.19;99520.69;4974951;28;20050;-69
2022/05/21 03:25:15;;;;;;;1.35;1.13;;;;;;;18.59;87.08;99525.75;4974844;28;20047;-69
2022/05/21 03:27:46;;;;;;;2.13;1.30;;;;;;;18.61;87.07;99538.59;4974693;28;20134;-69
2022/05/21 03:30:17;;;;;;;1.85;1.63;;;;;;;18.62;86.95;99541.13;4974892;28;20050;-68
2022/05/21 03:32:46;;;;;;;1.30;1.08;;;;;;;18.64;87.05;99541.91;4974841;28;20043;-69
2022/05/21 03:35:16;;;;;;;1.10;1.00;;;;;;;18.66;86.81;99549.63;4974607;28;20563;-69
2022/05/21 03:37:46;;;;;;;8.80;1.30;;;;;;;18.71;86.85;99553.72;4974723;28;20055;-69
2022/05/21 03:40:19;;;;;;;1.67;1.42;;;;;;;18.76;86.93;99563.06;4957512;28;20155;-69
2022/05/21 03:42:50;;;;;;;1.77;1.52;;;;;;;18.77;86.94;99557.00;4975177;28;20053;-69
2022/05/21 03:45:19;;;;;;;4.60;1.83;;;;;;;18.75;87.09;99557.06;4975311;28;20449;-69
2022/05/21 03:47:52;;;;;;;1.30;1.13;;;;;;;18.71;86.95;99577.00;4974865;28;20054;-69
2022/05/21 03:50:23;;;;;;;2.47;2.17;;;;;;;18.75;86.98;99562.22;4974523;28;20066;-69
2022/05/21 03:52:52;;;;;;;1.73;1.27;;;;;;;18.68;86.84;99535.75;4974909;28;20453;-69
2022/05/21 03:55:21;;;;;;;1.87;1.73;;;;;;;18.68;87.18;99535.75;4976540;28;20405;-69
2022/05/21 03:57:52;;;;;;;1.20;1.00;;;;;;;18.66;87.10;99537.56;4978481;28;20288;-69
2022/05/21 04:00:21;;;;;;;1.38;1.13;;;;;;;18.69;87.27;99552.94;4978840;28;20501;-69
2022/05/21 04:02:50;;;;;;;1.35;1.25;;;;;;;18.76;87.17;99565.66;4961507;28;20113;-69
2022/05/21 04:05:19;;;;;;;1.80;1.70;;;;;;;18.78;87.26;99581.97;4978483;28;20047;-69
2022/05/21 04:07:48;;;;;;;1.70;1.30;;;;;;;18.79;87.14;99568.97;4978527;28;20460;-69
2022/05/21 04:10:18;;;;;;;1.93;1.57;;;;;;;18.84;87.39;99561.03;4978551;28;20097;-69
2022/05/21 04:12:47;;;;;;;1.48;1.38;;;;;;;18.81;87.25;99546.50;4978281;28;20082;-69
2022/05/21 04:15:17;;;;;;;1.52;1.42;;;;;;;18.72;87.13;99521.81;4978318;28;20047;-69
2022/05/21 04:17:49;;;;;;;1.10;1.00;;;;;;;18.73;87.38;99549.38;4978440;28;20400;-69
2022/05/21 04:20:19;;;;;;;3.57;2.23;;;;;;;18.75;87.27;99562.22;4978438;28;20051;-69
2022/05/21 04:22:48;;;;;;;2.45;1.55;;;;;;;18.75;87.23;99551.88;4978162;28;20281;-69
2022/05/21 04:25:18;;;;;;;1.33;1.23;;;;;;;18.77;87.20;99551.81;4978063;28;20505;-69
2022/05/21 04:27:47;;;;;;;1.65;1.10;;;;;;;18.77;87.34;99557.84;4977977;28;20118;-69
2022/05/21 04:30:21;;;;;;;2.22;1.52;;;;;;;18.77;87.39;99564.75;4978277;28;20043;-69
2022/05/21 04:32:50;;;;;;;1.23;1.13;;;;;;;18.77;87.32;99569.91;4978399;28;20108;-68
2022/05/21 04:35:21;;;;;;;2.08;1.48;;;;;;;18.72;87.37;99573.53;4977862;28;20062;-68
2022/05/21 04:37:50;;;;;;;1.42;1.33;;;;;;;18.59;87.29;99556.78;4978067;28;20548;-68
2022/05/21 04:40:23;;;;;;;2.17;1.20;;;;;;;18.69;87.45;99567.63;4977711;28;20051;-68
2022/05/21 04:42:52;;;;;;;1.60;1.05;;;;;;;18.68;87.68;99551.28;4978038;28;20500;-68
2022/05/21 04:45:23;;;;;;;5.25;1.92;;;;;;;18.72;87.84;99547.66;4977623;28;20051;-68
2022/05/21 04:48:03;;;;;;;1.30;1.10;;;;;;;18.68;88.06;99561.59;4977367;28;20051;-69
2022/05/21 04:50:32;;;;;;;1.95;1.20;;;;;;;18.83;88.08;99561.97;4977848;28;20500;-68
2022/05/21 04:53:01;;;;;;;1.13;1.03;;;;;;;18.87;88.21;99566.09;4977834;28;20496;-68
2022/05/21 04:55:30;;;;;;;3.60;1.75;;;;;;;18.76;88.20;99537.22;4977801;28;20790;-68
2022/05/21 04:57:59;;;;;;;0.88;0.88;;;;;;;18.97;88.36;99559.72;4977452;28;20058;-68
2022/05/21 05:00:29;;;;;;;0.95;0.77;;;;;;;18.99;88.18;99561.34;4977257;28;20138;-68
2022/05/21 05:02:58;;;;;;;1.45;1.35;;;;;;;18.92;88.03;99570.22;4977433;28;20051;-69
2022/05/21 05:05:27;;;;;;;2.33;1.27;;;;;;;18.88;87.88;99557.47;4977296;28;20456;-67
2022/05/21 05:07:56;;;;;;;1.23;1.13;;;;;;;18.86;87.74;99560.09;4977536;28;20383;-68
2022/05/21 05:10:26;;;;;;;3.28;1.35;;;;;;;18.83;87.76;99565.41;4977153;28;20039;-68
2022/05/21 05:12:55;;;;;;;0.88;0.88;;;;;;;18.81;87.50;99566.34;4977426;28;20396;-68
2022/05/21 05:15:24;;;;;;;12.93;1.65;;;;;;;18.86;87.80;99583.38;4977408;28;20113;-68
2022/05/21 05:18:00;;;;;;;1.35;1.25;;;;;;;18.96;87.69;99576.97;4977359;28;20397;-68
2022/05/21 05:20:29;;;;;;;0.80;0.80;;;;;;;19.01;87.62;99563.84;4977375;28;20061;-68
2022/05/21 05:22:59;;;;;;;1.00;0.85;;;;;;;19.06;87.39;99556.78;4977288;28;20047;-68
2022/05/21 05:25:29;;;;;;;2.08;0.98;;;;;;;19.03;87.26;99562.91;4977028;28;20074;-68
2022/05/21 05:27:58;;;;;;;1.13;1.02;;;;;;;19.07;87.26;99558.47;4977013;28;20425;-68
2022/05/21 05:30:27;;;;;;;2.80;1.67;;;;;;;18.89;87.30;99517.75;4959639;28;20074;-68
2022/05/21 05:32:56;;;;;;;1.15;1.02;;;;;;;19.14;87.30;99554.75;4977096;28;20043;-68
2022/05/21 05:35:26;;;;;;;0.93;0.85;;;;;;;19.25;87.19;99557.78;4957800;29;20043;-68
2022/05/21 05:38:10;;;;;;;1.50;1.40;;;;;;;19.33;86.97;99559.19;4957404;29;20047;-68
2022/05/21 05:40:41;;;;;;;1.02;0.93;;;;;;;19.44;86.78;99557.94;4957541;29;20056;-67
2022/05/21 05:43:10;;;;;;;0.95;0.90;;;;;;;19.48;86.65;99557.78;4957705;29;20141;-68
2022/05/21 05:45:40;;;;;;;;;;;;;;;19.53;86.46;99558.41;4957739;29;20498;-68
2022/05/21 05:48:19;;;;;;;4.75;0.95;;;;;;;19.61;86.36;99561.56;4957287;29;19923;-67
2022/05/21 05:50:57;;;;;;;1.15;1.05;;;;;;;19.63;86.34;99557.16;4957398;29;20469;-67
2022/05/21 05:53:27;;;;;;;1.25;0.90;;;;;;;19.73;86.12;99550.72;4957145;29;20070;-68
2022/05/21 05:55:56;;;;;;;0.93;0.88;;;;;;;19.87;86.16;99558.78;4957434;29;20047;-68
2022/05/21 06:01:14;;;;;;;3.20;1.10;;;;;;;19.95;85.50;99543.78;4948185;29;20063;-68
2022/05/21 06:03:43;;;;;;;2.83;2.25;;;;;;;19.97;85.30;99548.88;4956824;29;20293;-68
2022/05/21 06:06:42;;;;;;;2.00;1.50;;;;;;;19.99;84.98;99542.75;4956862;29;20047;-67
2022/05/21 06:09:14;;;;;;;0.93;0.82;;;;;;;20.05;84.92;99547.69;4956701;29;20047;-67
2022/05/21 06:11:58;;;;;;;1.38;1.25;;;;;;;20.08;84.50;99543.28;4957171;29;20074;-68
2022/05/21 06:14:28;;;;;;;0.90;0.90;;;;;;;20.10;84.10;99538.88;4956727;29;20063;-67
2022/05/21 06:16:57;;;;;;;1.47;1.37;;;;;;;20.14;84.08;99545.59;4956414;28;20449;-68
2022/05/21 06:19:25;;;;;;;0.70;0.70;;;;;;;20.17;83.93;99550.66;4956664;29;20405;-68
2022/05/21 06:22:07;;;;;;;0.88;0.85;;;;;;;20.22;83.71;99543.53;4956568;29;20049;-68
2022/05/21 06:24:38;;;;;;;1.45;1.02;;;;;;;20.26;83.62;99550.31;4956518;29;20070;-66
2022/05/21 06:27:08;;;;;;;0.60;0.60;;;;;;;20.36;83.14;99549.84;4935681;28;20046;-68
2022/05/21 06:29:37;;;;;;;0.73;0.73;;;;;;;20.46;83.17;99548.56;4956336;29;20465;-68
2022/05/21 06:32:06;;;;;;;;;;;;;;;20.51;82.85;99550.97;4956744;29;20043;-68
2022/05/21 06:34:55;;;;;;;0.70;0.70;;;;;;;20.59;82.85;99549.69;4974006;28;19960;-68
2022/05/21 06:37:26;;;;;;;0.77;0.63;;;;;;;20.65;82.67;99551.19;4975787;28;20042;-68
2022/05/21 06:39:55;;;;;;;0.70;0.70;;;;;;;20.77;82.52;99552.41;4975587;28;20101;-68
2022/05/21 06:42:24;;;;;;;1.80;1.67;;;;;;;20.90;82.61;99558.75;4975580;28;20054;-69
2022/05/21 06:45:19;;;;;;;2.85;1.63;;;;;;;21.02;81.96;99555.59;4975464;28;20051;-69
2022/05/21 06:47:48;;;;;;;3.05;1.20;;;;;;;21.12;81.61;99565.50;4975381;28;20058;-69
2022/05/21 06:50:17;;;;;;;2.50;1.63;;;;;;;21.23;81.49;99565.03;4975188;28;20047;-69
2022/05/21 06:52:48;;;;;;;2.88;0.95;;;;;;;21.35;80.96;99557.50;4975481;28;20061;-69
2022/05/21 06:55:18;;;;;;;1.42;1.13;;;;;;;21.53;80.41;99570.53;4975391;28;20061;-69
2022/05/21 06:57:46;;;;;;;1.33;1.23;;;;;;;21.61;79.51;99568.44;4973896;28;20090;-69
2022/05/21 07:00:17;;;;;;;0.85;0.80;;;;;;;21.75;78.73;99572.06;4975524;28;20137;-70
2022/05/21 07:02:48;;;;;;;0.80;0.80;;;;;;;21.82;77.68;99567.41;4975167;28;20057;-70
2022/05/21 07:08:00;;;;;;;0.85;0.77;;;;;;;22.01;77.14;99576.03;4975491;28;20078;-70
2022/05/21 07:10:30;;;;;;;1.17;1.08;;;;;;;22.09;76.60;99581.72;4974926;28;20047;-70
2022/05/21 07:12:59;;;;;;;1.08;0.98;;;;;;;22.17;76.13;99587.34;4957911;28;20058;-69
2022/05/21 07:15:38;;;;;;;0.82;0.68;;;;;;;22.41;75.72;99582.72;4975026;28;20151;-70
2022/05/21 07:18:07;;;;;;;1.02;1.00;;;;;;;22.49;74.57;99573.59;4975286;28;20054;-68
2022/05/21 07:20:36;;;;;;;2.13;1.10;;;;;;;22.63;73.58;99573.75;4974935;28;20122;-70
2022/05/21 07:23:07;;;;;;;7.03;1.23;;;;;;;22.87;73.01;99582.03;4975067;28;20069;-69
2022/05/21 07:25:36;;;;;;;1.35;1.25;;;;;;;22.99;72.40;99570.13;4975077;28;20062;-70
2022/05/21 07:28:05;;;;;;;0.70;0.70;;;;;;;23.03;71.63;99571.66;4957786;28;20408;-69
2022/05/21 07:30:34;;;;;;;;;;;;;;;23.11;71.35;99564.28;4975183;28;20516;-69
2022/05/21 07:33:03;;;;;;;1.83;0.85;;;;;;;23.18;70.81;99550.00;4974931;28;19922;-70
2022/05/21 07:35:34;;;;;;;0.70;0.70;;;;;;;23.40;70.44;99560.97;4974660;28;20050;-69
2022/05/21 07:38:03;;;;;;;0.73;0.73;;;;;;;23.55;70.01;99565.34;4975071;28;20046;-69
2022/05/21 07:40:34;;;;;;;2.42;1.75;;;;;;;23.59;68.85;99556.41;4974997;28;20134;-69
2022/05/21 07:43:11;;;;;;;0.75;0.75;;;;;;;23.64;68.38;99554.41;4974721;28;20410;-70
2022/05/21 07:45:41;;;;;;;1.02;0.98;;;;;;;23.73;68.43;99564.28;4974623;28;20133;-70
2022/05/21 07:48:12;;;;;;;0.55;0.55;;;;;;;23.85;67.59;99571.44;4974649;28;20122;-68
2022/05/21 07:50:44;;;;;;;0.68;0.68;;;;;;;24.02;66.94;99572.25;4974792;28;20043;-69
2022/05/21 07:53:19;;;;;;;0.90;0.85;;;;;;;24.10;65.98;99578.72;4974845;28;20154;-70
2022/05/21 07:55:51;;;;;;;1.13;0.88;;;;;;;24.21;65.56;99580.75;4974489;28;20051;-68
2022/05/21 07:58:22;;;;;;;0.85;0.68;;;;;;;24.33;65.44;99586.06;4974498;28;20051;-69
2022/05/21 08:00:52;;;;;;;1.38;1.27;;;;;;;24.20;65.33;99545.13;4975162;28;20067;-70
2022/05/21 08:03:23;;;;;;;2.15;1.88;;;;;;;24.39;64.61;99579.66;4974819;28;20456;-69
2022/05/21 08:05:53;;;;;;;5.05;0.90;;;;;;;24.46;64.17;99592.25;4974444;28;20059;-70
2022/05/21 08:08:23;;;;;;;0.50;0.50;;;;;;;24.49;63.58;99588.63;4974830;28;20453;-69
2022/05/21 08:10:53;;;;;;;4.05;1.50;;;;;;;24.51;63.77;99590.22;4974457;28;20074;-69
2022/05/21 08:13:41;;;;;;;0.77;0.77;;;;;;;24.55;63.88;99585.63;4959528;28;20058;-69
2022/05/21 08:16:10;;;;;;;1.58;1.30;;;;;;;24.55;64.12;99586.47;4974359;28;20521;-69
2022/05/21 08:18:39;;;;;;;;;;;;;;;24.55;64.04;99586.47;4957767;28;20568;-69
2022/05/21 08:21:08;;;;;;;0.63;0.63;;;;;;;24.61;63.91;99586.13;4974396;28;19922;-69
2022/05/21 08:29:00;;;;;;;2.67;1.65;;;;;;;24.80;60.73;99580.66;4974618;28;20157;-69
2022/05/21 08:31:32;;;;;;;1.27;1.17;;;;;;;24.79;59.61;99585.97;4974129;28;20134;-69
2022/05/21 08:34:02;;;;;;;0.85;0.60;;;;;;;24.81;59.39;99587.56;4974246;28;20416;-69
2022/05/21 08:36:41;;;;;;;0.80;0.80;;;;;;;24.85;59.20;99578.63;4974077;28;20139;-69
2022/05/21 08:39:10;;;;;;;1.45;1.35;;;;;;;24.82;58.16;99577.97;4974466;28;20058;-69
2022/05/21 08:41:47;;;;;;;0.75;0.75;;;;;;;24.88;58.38;99586.28;4976483;28;20452;-69
2022/05/21 08:44:23;;;;;;;0.80;0.80;;;;;;;24.92;58.30;99584.31;4977925;28;20050;-69
2022/05/21 08:47:05;;;;;;;0.40;0.40;;;;;;;24.88;58.45;99577.59;4978251;28;20066;-69
2022/05/21 08:49:41;;;;;;;0.90;0.70;;;;;;;25.03;58.37;99581.88;4960326;28;20087;-68
2022/05/21 08:52:18;;;;;;;0.82;0.82;;;;;;;25.18;58.25;99589.63;4977479;28;20059;-69
2022/05/21 08:54:50;;;;;;;0.90;0.80;;;;;;;25.29;57.62;99588.94;4977414;28;20058;-69
2022/05/21 08:57:25;;;;;;;1.30;1.13;;;;;;;25.41;56.61;99592.56;4977782;28;20118;-69
2022/05/21 09:00:05;;;;;;;1.02;0.80;;;;;;;25.34;54.93;99591.28;4977651;28;20404;-69
2022/05/21 09:02:46;;;;;;;0.70;0.70;;;;;;;25.45;54.78;99599.31;4977882;28;20051;-69
2022/05/21 09:05:17;;;;;;;0.60;0.60;;;;;;;25.63;54.77;99609.44;4977645;28;20059;-69
2022/05/21 09:07:57;;;;;;;0.95;0.80;;;;;;;25.70;54.39;99604.66;4977333;28;20099;-70
2022/05/21 09:10:39;;;;;;;0.80;0.80;;;;;;;25.84;53.81;99602.84;4977697;28;20109;-68
2022/05/21 09:13:17;;;;;;;0.50;0.50;;;;;;;25.83;52.09;99610.78;4977290;28;20050;-69
2022/05/21 09:18:25;;;;;;;2.40;0.85;;;;;;;26.02;51.88;99605.19;4977498;28;20059;-69
2022/05/21 09:21:00;;;;;;;0.55;0.55;;;;;;;25.97;50.84;99605.50;4976976;28;20047;-69
2022/05/21 09:23:51;;;;;;;1.40;0.77;;;;;;;25.79;50.08;99604.94;4977313;28;20456;-69
2022/05/21 09:26:26;;;;;;;0.60;0.60;;;;;;;25.68;50.04;99601.31;4977517;28;20429;-68
2022/05/21 09:29:16;;;;;;;1.48;1.30;;;;;;;25.75;49.64;99602.59;4977118;28;20444;-69
2022/05/21 09:31:46;;;;;;;0.80;0.80;;;;;;;25.91;50.35;99598.06;4976950;28;20050;-69
2022/05/21 09:34:23;;;;;;;1.02;0.90;;;;;;;26.01;49.16;99596.50;4976598;28;20050;-68
2022/05/21 09:36:52;;;;;;;0.77;0.77;;;;;;;25.97;47.96;99589.81;4977098;28;20105;-69
2022/05/21 09:39:35;;;;;;;0.50;0.50;;;;;;;25.92;47.90;99591.88;4976712;28;20497;-69
2022/05/21 09:45:22;;;;;;;0.73;0.73;;;;;;;25.90;48.63;99585.91;4975412;28;20051;-69
2022/05/21 09:45:23;;;;;;;0.90;0.88;;;;;;;26.05;47.71;99590.16;4976556;28;20110;-68
2022/05/21 09:48:15;;;;;;;0.73;0.73;;;;;;;25.97;46.67;99581.97;4976668;28;20058;-69
2022/05/21 09:50:49;;;;;;;0.70;0.70;;;;;;;25.93;46.56;99580.50;4976451;28;20050;-69
2022/05/21 09:53:33;;;;;;;0.60;0.60;;;;;;;25.78;46.17;99581.47;4976734;28;20460;-68
2022/05/21 09:56:06;;;;;;;0.60;0.60;;;;;;;25.55;45.83;99543.75;4976703;28;20047;-69
2022/05/21 09:58:39;;;;;;;0.50;0.50;;;;;;;25.70;46.16;99557.59;4976709;28;20138;-69
2022/05/21 10:01:14;;;;;;;0.60;0.60;;;;;;;25.95;46.32;99573.38;4976379;28;20058;-69
2022/05/21 10:04:10;;;;;;;1.30;0.98;;;;;;;26.17;46.32;99573.69;4977139;28;20420;-69
2022/05/21 10:06:43;;;;;;;1.20;0.80;;;;;;;26.28;45.63;99575.56;4976231;28;20133;-68
2022/05/21 10:12:00;;;;;;;0.95;0.88;;;;;;;26.42;45.39;99572.84;4976240;28;20521;-69
2022/05/21 10:14:35;;;;;;;1.45;1.35;;;;;;;26.30;45.00;99569.28;4975984;28;20066;-68
2022/05/21 10:17:09;;;;;;;0.50;0.50;;;;;;;26.38;46.05;99572.25;4976143;28;20054;-69
2022/05/21 10:19:47;;;;;;;0.55;0.55;;;;;;;26.43;46.20;99578.00;4976258;28;20058;-68
2022/05/21 10:22:38;;;;;;;0.60;0.60;;;;;;;26.33;46.88;99576.09;4976204;28;20486;-69
2022/05/21 10:25:11;;;;;;;0.60;0.60;;;;;;;26.22;47.17;99565.53;4975776;28;20051;-68
2022/05/21 10:27:56;;;;;;;0.85;0.70;;;;;;;26.31;46.72;99576.22;4975827;28;20106;-69
2022/05/21 10:30:30;;;;;;;0.88;0.70;;;;;;;26.33;46.66;99574.34;4975783;28;20051;-68
2022/05/21 10:33:23;;;;;;;0.77;0.77;;;;;;;26.33;45.78;99592.66;4975784;28;20434;-70
2022/05/21 10:36:04;;;;;;;1.83;0.75;;;;;;;26.46;46.02;99590.91;4975844;28;20483;-68
2022/05/21 10:38:45;;;;;;;0.82;0.82;;;;;;;26.70;45.76;99582.31;4975708;28;20141;-69
2022/05/21 10:41:31;;;;;;;0.90;0.90;;;;;;;26.64;45.31;99578.34;4975906;28;20058;-68
2022/05/21 10:44:14;;;;;;;0.73;0.73;;;;;;;26.45;45.45;99586.59;4975893;28;20056;-68
2022/05/21 10:46:52;;;;;;;0.60;0.60;;;;;;;26.23;45.99;99578.50;4975419;28;20047;-69
2022/05/21 10:50:05;;;;;;;3.30;0.77;;;;;;;26.11;46.84;99584.53;4975443;28;20062;-69
2022/05/21 10:52:52;;;;;;;0.63;0.63;;;;;;;26.04;46.92;99578.00;4950497;28;20043;-69
2022/05/21 10:55:26;;;;;;;1.10;1.00;;;;;;;25.98;47.08;99578.41;4975303;28;20117;-69
2022/05/21 10:58:14;;;;;;;0.50;0.50;;;;;;;26.14;48.02;99576.50;4975478;28;20508;-69
2022/05/21 11:01:05;;;;;;;0.80;0.65;;;;;;;26.46;48.12;99575.19;4975662;28;20059;-69
2022/05/21 11:03:45;;;;;;;0.70;0.70;;;;;;;26.74;47.14;99568.91;4975131;28;20527;-69
2022/05/21 11:06:26;;;;;;;0.60;0.60;;;;;;;26.99;45.11;99573.31;4975177;28;20405;-68
2022/05/21 11:09:09;;;;;;;1.27;0.90;;;;;;;27.22;44.33;99564.69;4975404;28;20117;-68
2022/05/21 11:11:54;;;;;;;1.10;0.93;;;;;;;27.44;44.22;99564.88;4975017;28;20064;-68
2022/05/21 11:14:28;;;;;;;0.63;0.63;;;;;;;27.56;43.72;99569.22;4975332;28;20505;-68
2022/05/21 11:17:16;;;;;;;0.52;0.52;;;;;;;27.60;44.17;99564.56;4975053;28;20138;-69
2022/05/21 11:19:50;;;;;;;0.52;0.52;;;;;;;27.61;44.40;99567.13;4974903;28;20101;-68
2022/05/21 11:22:33;;;;;;;1.08;0.90;;;;;;;27.73;44.12;99560.97;4975497;28;20499;-68
2022/05/21 11:25:12;;;;;;;0.60;0.60;;;;;;;27.70;43.79;99560.34;4975019;28;20055;-68
2022/05/21 11:27:48;;;;;;;0.60;0.60;;;;;;;27.75;43.82;99553.81;4974886;28;20138;-68
2022/05/21 11:30:20;;;;;;;0.50;0.50;;;;;;;27.62;42.83;99532.06;4975152;28;20410;-68
2022/05/21 11:38:22;;;;;;;0.60;0.60;;;;;;;27.87;43.39;99555.56;4974846;28;20065;-69
2022/05/21 11:41:24;;;;;;;0.52;0.50;;;;;;;27.85;43.31;99541.72;4974621;28;20138;-68
2022/05/21 11:44:55;;;;;;;0.50;0.50;;;;;;;28.08;43.07;99560.16;4974699;28;20070;-68
2022/05/21 11:46:54;;;;;;;0.60;0.60;;;;;;;27.99;43.37;99545.94;4957478;28;20074;-68
2022/05/21 11:49:35;;;;;;;1.67;0.73;;;;;;;28.04;43.62;99545.63;4974613;28;20058;-69
2022/05/21 11:52:28;;;;;;;0.60;0.60;;;;;;;28.08;42.89;99550.53;4974459;28;20058;-68
2022/05/21 11:55:18;;;;;;;0.50;0.50;;;;;;;28.09;42.61;99535.63;4974810;28;20146;-68
2022/05/21 11:57:53;;;;;;;0.50;0.50;;;;;;;28.03;41.27;99544.78;4974460;28;20046;-68
2022/05/21 12:00:43;;;;;;;0.80;0.57;;;;;;;28.16;41.76;99536.81;4975173;28;20509;-68
2022/05/21 12:03:16;;;;;;;0.52;0.52;;;;;;;28.22;42.53;99533.75;4974719;28;20058;-68
2022/05/21 12:06:18;;;;;;;0.57;0.57;;;;;;;28.05;41.60;99534.19;4974738;28;20492;-67
2022/05/21 12:08:49;;;;;;;0.60;0.60;;;;;;;27.84;40.50;99526.91;4974560;28;20055;-67
2022/05/21 12:11:40;;;;;;;0.50;0.50;;;;;;;27.76;40.51;99524.00;4974715;28;20055;-67
2022/05/21 12:14:20;;;;;;;0.63;0.63;;;;;;;27.62;40.27;99533.81;4974463;28;20047;-67
2022/05/21 12:16:56;;;;;;;0.63;0.63;;;;;;;27.53;40.88;99524.84;4976777;28;20055;-67
2022/05/21 12:19:49;;;;;;;0.85;0.77;;;;;;;27.21;39.65;99523.69;4978275;28;20093;-67
2022/05/21 12:22:40;;;;;;;0.70;0.70;;;;;;;27.24;40.49;99526.94;4978261;28;20096;-68
2022/05/21 12:25:14;;;;;;;1.85;1.05;;;;;;;27.28;40.66;99515.25;4978339;28;20412;-68
2022/05/21 12:28:01;;;;;;;0.70;0.70;;;;;;;27.48;40.83;99513.88;4978336;28;20078;-68
2022/05/21 12:30:32;;;;;;;0.32;0.32;;;;;;;27.52;39.49;99520.53;4977877;28;20054;-68
2022/05/21 12:33:01;;;;;;;0.70;0.70;;;;;;;27.57;39.30;99510.56;4977988;28;20492;-67
2022/05/21 12:35:48;;;;;;;0.40;0.40;;;;;;;27.56;39.17;99514.16;4978524;28;20448;-67
2022/05/21 12:38:30;;;;;;;0.60;0.60;;;;;;;27.52;39.07;99512.69;4978147;28;20505;-68
2022/05/21 12:41:06;;;;;;;0.50;0.50;;;;;;;27.47;38.35;99512.22;4978126;28;20059;-68
2022/05/21 12:43:47;;;;;;;0.70;0.70;;;;;;;27.43;38.85;99510.72;4977713;28;20108;-67